Startpagina
METAR-TAF:

METAR-TAF

Vliegvelden :

Zadar, Kroatië

breedte: 44-06N, lengte: 015-21E, hoogte: 82 m

Actueel weer

Dit bericht is 37 minuten geleden gemaakt, om 12:00 UTC
Wind 4 kt uit variabele richting
Temperatuur 29°C
Vochtigheid 45%
Druk 1018 hPa
Zicht 10 km of meer
geen wolken onder 1500 m en geen cumulonimbus

METAR: LDZD 201200Z VRB04KT CAVOK 29/16 Q1018 BECMG 24008KT

Tijdstip: 14:37 (12:37 UTC)

Verwachting

Dit bericht is 1 uur en het 12 minuten geleden gemaakt, om 11:25 UTC
Verwachting geldig van 20 om 12 UTC tot 21 om 12 UTC
Wind 8 kt uit het westzuidwesten
Zicht 10 km of meer
geen wolken onder 1500 m en geen cumulonimbus
Tijdelijke
van 20 om 14 UTC tot 20 om 16 UTC
Wind 8 kt uit het westen
Wijzigt naar
van 20 om 16 UTC tot 20 om 18 UTC
Wind 2 kt uit variabele richting
Wijzigt naar
van 21 om 10 UTC tot 21 om 12 UTC
Wind 8 kt uit het westzuidwesten

TAF: LDZD 201125Z 2012/2112 24008KT CAVOK TX29/2012Z TN17/2104Z TEMPO 2014/2016 28008KT BECMG 2016/2018 VRB02KT BECMG 2110/2112 24008KT

Waarnemingen en weersverwachtingen van meer dan 4000 vliegvelden (METAR en TAF).

De beschikbare stations zijn de gele en rode punten op de kaart.

Ga met uw muis naar het station om de naam te zien.

Klik dan om waarnemingen en weersverwachtingen te zien.

kaart wijzigen: klik op de groene knoppen met een zwart kruis om in te zoomen, op de groene knop met een streepje om uit te zoomen of op de groene pijlen voor aangrenzende kaarten.


METAR-TAF: